Cic Rolaco — V7ZO8 — position and weather

sailwx.info

Track history (hours):
 
Tides and Currents Weather Stations Pressure Air Temp Water Temp Dewpoint Dewpoint Depression Visibility Wind Speed Wind Dir Waves Ship Positions

Cic Rolaco

Last reported at 2018-Jul-15 09:40 UTC. Time now 2018-Jul-16 02:32 UTC.
Position N 36°05' W 005°07'.

Length 292 m; draft 17.7 m.

Type: Cargo ship. MMSI: 538004881.

Date/timePositionNaut miles runAvg speedWind from/ knotsBaromVisibWave heightAir tempDewpointWater temp
2018-Jul-15 09:40N 36°05' W 005°07'211.5
2018-Jul-15 09:30N 36°05' W 005°10'611.7
2018-Jul-15 09:00N 36°05' W 005°17'5 9.3
2018-Jul-15 08:30N 36°06' W 005°23'2 3.7
2018-Jul-15 08:00N 36°08' W 005°23'0 0.1
2018-Jul-15 07:27N 36°08' W 005°23'0 0.1
2018-Jul-15 06:57N 36°08' W 005°22'0 0.2
2018-Jul-15 06:27N 36°08' W 005°22'0 0.1
2018-Jul-15 05:57N 36°07' W 005°22'0 0.0
2018-Jul-15 05:27N 36°07' W 005°22'0 0.1
2018-Jul-15 05:00N 36°07' W 005°22'0 0.1
2018-Jul-15 04:27N 36°07' W 005°22'0 0.2
2018-Jul-15 03:51N 36°07' W 005°22'0 0.2
2018-Jul-15 03:30N 36°07' W 005°22'0 0.2
2018-Jul-15 02:51N 36°07' W 005°22'0 0.1
2018-Jul-15 02:30N 36°07' W 005°22'0 0.1
2018-Jul-15 02:00N 36°07' W 005°22'0 0.1
2018-Jul-15 01:21N 36°07' W 005°22'0 0.1
2018-Jul-15 00:57N 36°07' W 005°22'0 0.2
2018-Jul-15 00:30N 36°07' W 005°22'0 0.1
2018-Jul-15 00:00N 36°07' W 005°22'0 0.1
2018-Jul-14 23:27N 36°07' W 005°22'0 0.2
2018-Jul-14 22:51N 36°07' W 005°23'0 0.0
2018-Jul-14 20:30N 36°07' W 005°22'0 0.1
2018-Jul-14 19:57N 36°07' W 005°22'0 0.2
2018-Jul-14 19:30N 36°07' W 005°22'0 0.5
2018-Jul-14 19:00N 36°07' W 005°22'2 4.3
2018-Jul-14 18:31N 36°06' W 005°20'2 3.5
2018-Jul-14 18:00N 36°06' W 005°18'4 8.4
2018-Jul-14 17:30N 36°08' W 005°14'4 8.3
2018-Jul-14 17:01N 36°11' W 005°10'0 0.8
2018-Jul-14 16:29N 36°11' W 005°10'1 1.9
2018-Jul-14 16:00N 36°11' W 005°11'0 0.7
2018-Jul-14 15:31N 36°10' W 005°11'1 1.1
2018-Jul-14 15:01N 36°10' W 005°11'1 1.8
2018-Jul-14 14:31N 36°09' W 005°12'2 1.8
2018-Jul-14 13:30N 36°07' W 005°13'1 1.2
2018-Jul-14 13:00N 36°07' W 005°13'0 0.6
2018-Jul-14 12:30N 36°07' W 005°13'1 1.2
2018-Jul-14 12:00N 36°06' W 005°14'1 1.0
2018-Jul-14 11:26N 36°06' W 005°14'0 0.9
2018-Jul-14 11:01N 36°06' W 005°15'0 0.8
2018-Jul-14 10:30N 36°07' W 005°15'1 1.1
2018-Jul-14 10:01N 36°07' W 005°14'1 1.5
2018-Jul-14 09:30N 36°07' W 005°13'1 2.5
2018-Jul-14 08:57N 36°06' W 005°11'1 2.0
2018-Jul-14 08:15N 36°06' W 005°10'1 0.3
2018-Jul-14 06:25N 36°06' W 005°09'0 0.7
2018-Jul-14 06:01N 36°06' W 005°10'0 0.8
2018-Jul-14 05:30N 36°06' W 005°10'0 0.8
2018-Jul-14 05:00N 36°07' W 005°11'0 0.8
2018-Jul-14 04:30N 36°07' W 005°11'0 0.7
2018-Jul-14 04:00N 36°07' W 005°12'0 0.3
2018-Jul-14 03:30N 36°07' W 005°12'0 0.5
2018-Jul-14 03:00N 36°07' W 005°12'0 0.8
2018-Jul-14 02:31N 36°07' W 005°12'2 3.5
2018-Jul-14 02:01N 36°07' W 005°14'3 5.9
2018-Jul-14 01:31N 36°05' W 005°17'4 8.7
2018-Jul-14 01:00N 36°02' W 005°21'611.5
2018-Jul-14 00:31N 35°58' W 005°26'911.4
2018-Jul-13 23:42N 35°56' W 005°37'210.2
2018-Jul-13 23:31N 35°55' W 005°39'  
Track history (hours):
 
Tides and Currents Weather Stations Pressure Air Temp Water Temp Dewpoint Dewpoint Depression Visibility Wind Speed Wind Dir Waves Ship Positions

Cic Rolaco

Last reported at 2018-Jul-15 09:40 UTC. Time now 2018-Jul-16 02:32 UTC.
Position N 36°05' W 005°07'.

Length 292 m; draft 17.7 m.

Type: Cargo ship. MMSI: 538004881.

Date/timePositionNaut miles runAvg speedWind from/ knotsBaromVisibWave heightAir tempDewpointWater temp
2018-Jul-15 09:40N 36°05' W 005°07'211.5
2018-Jul-15 09:30N 36°05' W 005°10'611.7
2018-Jul-15 09:00N 36°05' W 005°17'5 9.3
2018-Jul-15 08:30N 36°06' W 005°23'2 3.7
2018-Jul-15 08:00N 36°08' W 005°23'0 0.1
2018-Jul-15 07:27N 36°08' W 005°23'0 0.1
2018-Jul-15 06:57N 36°08' W 005°22'0 0.2
2018-Jul-15 06:27N 36°08' W 005°22'0 0.1
2018-Jul-15 05:57N 36°07' W 005°22'0 0.0
2018-Jul-15 05:27N 36°07' W 005°22'0 0.1
2018-Jul-15 05:00N 36°07' W 005°22'0 0.1
2018-Jul-15 04:27N 36°07' W 005°22'0 0.2
2018-Jul-15 03:51N 36°07' W 005°22'0 0.2
2018-Jul-15 03:30N 36°07' W 005°22'0 0.2
2018-Jul-15 02:51N 36°07' W 005°22'0 0.1
2018-Jul-15 02:30N 36°07' W 005°22'0 0.1
2018-Jul-15 02:00N 36°07' W 005°22'0 0.1
2018-Jul-15 01:21N 36°07' W 005°22'0 0.1
2018-Jul-15 00:57N 36°07' W 005°22'0 0.2
2018-Jul-15 00:30N 36°07' W 005°22'0 0.1
2018-Jul-15 00:00N 36°07' W 005°22'0 0.1
2018-Jul-14 23:27N 36°07' W 005°22'0 0.2
2018-Jul-14 22:51N 36°07' W 005°23'0 0.0
2018-Jul-14 20:30N 36°07' W 005°22'0 0.1
2018-Jul-14 19:57N 36°07' W 005°22'0 0.2
2018-Jul-14 19:30N 36°07' W 005°22'0 0.5
2018-Jul-14 19:00N 36°07' W 005°22'2 4.3
2018-Jul-14 18:31N 36°06' W 005°20'2 3.5
2018-Jul-14 18:00N 36°06' W 005°18'4 8.4
2018-Jul-14 17:30N 36°08' W 005°14'4 8.3
2018-Jul-14 17:01N 36°11' W 005°10'0 0.8
2018-Jul-14 16:29N 36°11' W 005°10'1 1.9
2018-Jul-14 16:00N 36°11' W 005°11'0 0.7
2018-Jul-14 15:31N 36°10' W 005°11'1 1.1
2018-Jul-14 15:01N 36°10' W 005°11'1 1.8
2018-Jul-14 14:31N 36°09' W 005°12'2 1.8
2018-Jul-14 13:30N 36°07' W 005°13'1 1.2
2018-Jul-14 13:00N 36°07' W 005°13'0 0.6
2018-Jul-14 12:30N 36°07' W 005°13'1 1.2
2018-Jul-14 12:00N 36°06' W 005°14'1 1.0
2018-Jul-14 11:26N 36°06' W 005°14'0 0.9
2018-Jul-14 11:01N 36°06' W 005°15'0 0.8
2018-Jul-14 10:30N 36°07' W 005°15'1 1.1
2018-Jul-14 10:01N 36°07' W 005°14'1 1.5
2018-Jul-14 09:30N 36°07' W 005°13'1 2.5
2018-Jul-14 08:57N 36°06' W 005°11'1 2.0
2018-Jul-14 08:15N 36°06' W 005°10'1 0.3
2018-Jul-14 06:25N 36°06' W 005°09'0 0.7
2018-Jul-14 06:01N 36°06' W 005°10'0 0.8
2018-Jul-14 05:30N 36°06' W 005°10'0 0.8
2018-Jul-14 05:00N 36°07' W 005°11'0 0.8
2018-Jul-14 04:30N 36°07' W 005°11'0 0.7
2018-Jul-14 04:00N 36°07' W 005°12'0 0.3
2018-Jul-14 03:30N 36°07' W 005°12'0 0.5
2018-Jul-14 03:00N 36°07' W 005°12'0 0.8
2018-Jul-14 02:31N 36°07' W 005°12'2 3.5
2018-Jul-14 02:01N 36°07' W 005°14'3 5.9
2018-Jul-14 01:31N 36°05' W 005°17'4 8.7
2018-Jul-14 01:00N 36°02' W 005°21'611.5
2018-Jul-14 00:31N 35°58' W 005°26'911.4
2018-Jul-13 23:42N 35°56' W 005°37'210.2
2018-Jul-13 23:31N 35°55' W 005°39'  

Dump ship's entire track history